Abaujszanto, Hungary
Current Conditions -  °F | °C
As of 10:00 PM on Sunday 23 Nov 2014 (Local Time) from LZKZ Reporting Station
Clear Clear  
Wind Chill: 29°   Ceiling: Unl
Heat Index: 36°   Visibility: 6mi
Dew Point: 30°   Wind: 9mph
Humidity: 81%   Direction: 20°NNE
Pressure: 30.42"   Gusts: NA
Location:  48.28°N, 21.18°E
Report Text: LZKZ 232000Z 02008KT CAVOK 02/M01 Q1030
Loading
Personal Weather Stations






























Interactive Weather Map New forecast layout! Learn more

10-Day Weather Forecast

Advertisements
Track Severe Weather on mobile